Ana Sayfa
METAR-TAF:

METAR-TAF

Havaalanları :

Coyhaique, Şili

Enlem: 45-35S, Boylam: 072-07W, yükseklik: 310 m

METAR: eksik

Saat: 20:58 (00:58 UTC)

Tahmin

Rapor saat 16:28 UTC de 8 saat ve 30 dakika önce yapıldı.
Ayın 13'si saat 17 UTC'den ayın 13'si saat 24 UTC'ye kadar geçerli Tahmin
Rüzgar güney/güneybatıdan 4 kt
Görüş mesafesi: 0600 m
200 ft yükseklikte çok bulutlu
Donan sis
Geçici
ayın 13'si saat 18 UTC'den ayın 13'si saat 20 UTC'ye kadar
Görüş mesafesi: 2000 m
500 ft yükseklikte çok bulutlu
Pus,

TAF: SCCY 131628Z 1317/1324 20004KT 0600 FZFG OVC002 TNM03/1317Z TXM01/1319Z TEMPO 1318/1320 2000 BR OVC005

4.000'den fazla havaalanı için hava durumu gözlemleri ve tahminleri (METAR ve TAF raporları).

Kullanılabilir istasyonlar harita üzerinde sarı ve kırmızı noktalarla gösterilir.

İstasyonun adını görmek için fareyi noktanın üzerinde gezdirin.

Sonrasında hava gözlem ve tahminlerini görmek için tıklayın.

Haritayı değiştirmek için: yaklaştırmak için siyah artı işaretli yeşil düğmeye ve uzaklaştırmak için de eksi işaretli düğmeye hızla tıklayın; bitişik haritalar için yeşil okları kullanın.


METAR-TAF: